createdAt,value
2023-05-28T00:00:14.620Z,8.00
2023-05-28T00:02:41.331Z,10.70
2023-05-28T00:05:08.278Z,10.17
2023-05-28T00:07:34.840Z,9.97
2023-05-28T00:10:01.510Z,10.97
2023-05-28T00:12:28.119Z,9.33
2023-05-28T00:14:54.751Z,9.43
2023-05-28T00:17:22.594Z,11.73
2023-05-28T00:19:49.275Z,11.83
2023-05-28T00:22:16.379Z,12.47
2023-05-28T00:24:42.973Z,9.13
2023-05-28T00:27:09.652Z,10.77
2023-05-28T00:29:36.325Z,10.77
2023-05-28T00:32:03.086Z,9.53
2023-05-28T00:34:29.699Z,11.37
2023-05-28T00:36:56.307Z,12.83
2023-05-28T00:39:22.965Z,9.83
2023-05-28T00:41:49.618Z,12.57
2023-05-28T00:44:16.268Z,12.33
2023-05-28T00:46:46.551Z,13.40
2023-05-28T00:49:13.367Z,13.33
2023-05-28T00:51:40.560Z,12.17
2023-05-28T00:54:07.210Z,11.67
2023-05-28T00:56:33.886Z,13.20
2023-05-28T00:59:03.416Z,13.60
2023-05-28T01:01:30.847Z,12.23
2023-05-28T01:03:57.688Z,15.57
2023-05-28T01:06:24.451Z,13.53
2023-05-28T01:08:51.733Z,12.97
2023-05-28T01:11:19.940Z,11.80
2023-05-28T01:13:47.668Z,12.43
2023-05-28T01:16:14.437Z,14.37
2023-05-28T01:18:42.870Z,12.03
2023-05-28T01:21:10.135Z,11.73
2023-05-28T01:23:42.432Z,13.47
2023-05-28T01:26:09.382Z,10.47
2023-05-28T01:28:36.203Z,12.97
2023-05-28T01:31:02.754Z,12.87
2023-05-28T01:33:29.510Z,13.70
2023-05-28T01:35:57.128Z,12.40
2023-05-28T01:38:24.691Z,13.80
2023-05-28T01:40:51.995Z,11.53
2023-05-28T01:43:18.720Z,11.17
2023-05-28T01:45:45.546Z,11.03
2023-05-28T01:48:12.480Z,14.10
2023-05-28T01:50:39.625Z,15.07
2023-05-28T01:53:06.322Z,12.80
2023-05-28T01:55:33.924Z,12.03
2023-05-28T01:58:00.503Z,11.90
2023-05-28T02:00:27.531Z,12.70
2023-05-28T02:02:54.498Z,13.97
2023-05-28T02:05:21.120Z,11.73
2023-05-28T02:07:47.816Z,17.07
2023-05-28T02:10:14.376Z,11.07
2023-05-28T02:12:41.242Z,14.40
2023-05-28T02:15:08.303Z,10.37
2023-05-28T02:17:34.923Z,16.17
2023-05-28T02:20:01.579Z,13.37
2023-05-28T02:22:28.203Z,12.30
2023-05-28T02:24:54.747Z,12.47
2023-05-28T02:27:21.278Z,13.77
2023-05-28T02:29:48.423Z,16.87
2023-05-28T02:32:15.274Z,13.30
2023-05-28T02:34:41.851Z,12.93
2023-05-28T02:37:08.563Z,11.83
2023-05-28T02:39:35.241Z,11.90
2023-05-28T02:42:02.196Z,13.03
2023-05-28T02:44:28.767Z,12.83
2023-05-28T02:46:55.547Z,9.83
2023-05-28T02:49:22.110Z,10.37
2023-05-28T02:51:48.764Z,12.50
2023-05-28T02:54:15.659Z,11.87
2023-05-28T02:56:42.228Z,11.47
2023-05-28T02:59:08.791Z,12.60
2023-05-28T03:01:35.468Z,11.50
2023-05-28T03:04:02.099Z,12.47
2023-05-28T03:06:28.738Z,14.13
2023-05-28T03:08:55.517Z,11.13
2023-05-28T03:11:22.072Z,9.87
2023-05-28T03:13:48.719Z,12.87
2023-05-28T03:16:15.303Z,11.80
2023-05-28T03:18:41.892Z,11.83
2023-05-28T03:21:08.545Z,11.20
2023-05-28T03:23:35.152Z,9.03
2023-05-28T03:26:01.791Z,12.20
2023-05-28T03:28:28.478Z,12.10
2023-05-28T03:30:56.741Z,13.23
2023-05-28T03:33:23.394Z,14.00
2023-05-28T03:35:50.061Z,10.57
2023-05-28T03:38:16.663Z,14.47
2023-05-28T03:40:43.540Z,10.17
2023-05-28T03:43:10.144Z,13.33
2023-05-28T03:45:36.739Z,10.77
2023-05-28T03:48:04.250Z,13.13
2023-05-28T03:50:31.119Z,10.30
2023-05-28T03:52:58.480Z,9.87
2023-05-28T03:55:25.029Z,11.10
2023-05-28T03:57:51.573Z,10.33
2023-05-28T04:00:18.153Z,11.30
2023-05-28T04:02:44.872Z,11.63
2023-05-28T04:05:11.553Z,10.73
2023-05-28T04:07:38.197Z,12.20
2023-05-28T04:10:05.542Z,10.63
2023-05-28T04:12:32.178Z,9.23
2023-05-28T04:15:19.502Z,10.10
2023-05-28T04:18:06.536Z,10.37
2023-05-28T04:20:44.820Z,10.77
2023-05-28T04:23:31.367Z,11.60
2023-05-28T04:26:07.605Z,9.80
2023-05-28T04:28:54.226Z,11.13
2023-05-28T04:31:41.971Z,11.07
2023-05-28T04:34:25.647Z,13.00
2023-05-28T04:37:01.187Z,13.43
2023-05-28T04:39:28.589Z,10.30
2023-05-28T04:41:55.190Z,12.67
2023-05-28T04:44:21.838Z,13.53
2023-05-28T04:46:48.545Z,11.60
2023-05-28T04:49:15.565Z,11.70
2023-05-28T04:51:42.330Z,14.83
2023-05-28T04:54:08.933Z,14.00
2023-05-28T04:56:36.424Z,16.83
2023-05-28T04:59:06.208Z,14.67
2023-05-28T05:01:36.407Z,15.37
2023-05-28T05:04:03.915Z,15.57
2023-05-28T05:06:31.582Z,19.17
2023-05-28T05:08:58.156Z,15.47
2023-05-28T05:11:24.994Z,15.73
2023-05-28T05:13:51.540Z,18.30
2023-05-28T05:16:18.433Z,18.77
2023-05-28T05:18:45.015Z,16.33
2023-05-28T05:21:14.098Z,16.83
2023-05-28T05:23:43.613Z,13.83
2023-05-28T05:26:18.377Z,12.33
2023-05-28T05:28:45.205Z,16.33
2023-05-28T05:31:13.493Z,13.83
2023-05-28T05:33:41.284Z,13.67
2023-05-28T05:36:09.010Z,15.67
2023-05-28T05:38:35.868Z,13.57
2023-05-28T05:41:02.435Z,14.23
2023-05-28T05:43:28.988Z,13.67
2023-05-28T05:45:56.004Z,12.50
2023-05-28T05:48:22.890Z,13.03
2023-05-28T05:50:50.153Z,14.33
2023-05-28T05:53:17.194Z,12.87
2023-05-28T05:55:44.959Z,15.27
2023-05-28T05:58:11.677Z,13.97
2023-05-28T06:00:39.654Z,14.97
2023-05-28T06:03:07.591Z,15.33
2023-05-28T06:05:34.943Z,12.33
2023-05-28T06:08:02.140Z,12.47
2023-05-28T06:10:29.207Z,12.50
2023-05-28T06:12:56.415Z,14.07
2023-05-28T06:15:23.193Z,14.57
2023-05-28T06:17:49.984Z,12.37
2023-05-28T06:20:17.539Z,13.57
2023-05-28T06:22:44.104Z,14.80
2023-05-28T06:25:10.617Z,17.00
2023-05-28T06:27:37.673Z,11.53
2023-05-28T06:30:04.558Z,14.13
2023-05-28T06:32:31.120Z,14.17
2023-05-28T06:34:58.274Z,11.73
2023-05-28T06:37:24.865Z,12.90
2023-05-28T06:39:51.675Z,11.50
2023-05-28T06:42:19.130Z,12.53
2023-05-28T06:44:45.639Z,11.77
2023-05-28T06:47:12.198Z,12.70
2023-05-28T06:49:38.789Z,11.60
2023-05-28T06:52:05.339Z,11.00
2023-05-28T06:54:31.878Z,12.13
2023-05-28T06:56:58.530Z,12.80
2023-05-28T06:59:25.112Z,10.73
2023-05-28T07:01:51.682Z,10.37
2023-05-28T07:04:18.429Z,10.43
2023-05-28T07:06:45.033Z,10.07
2023-05-28T07:09:12.064Z,11.47
2023-05-28T07:11:38.598Z,14.30
2023-05-28T07:14:05.243Z,11.63
2023-05-28T07:16:31.971Z,12.70
2023-05-28T07:18:58.591Z,10.37
2023-05-28T07:21:25.173Z,8.17
2023-05-28T07:23:51.695Z,8.87
2023-05-28T07:26:18.330Z,10.97
2023-05-28T07:28:44.990Z,9.30
2023-05-28T07:31:11.649Z,13.77
2023-05-28T07:33:38.349Z,9.17
2023-05-28T07:36:04.977Z,12.80
2023-05-28T07:38:31.610Z,8.53
2023-05-28T07:40:58.246Z,9.23
2023-05-28T07:43:24.817Z,6.80
2023-05-28T07:45:51.602Z,12.83
2023-05-28T07:48:18.348Z,10.13
2023-05-28T07:50:44.987Z,12.30
2023-05-28T07:53:11.955Z,10.40
2023-05-28T07:55:38.527Z,8.97
2023-05-28T07:58:05.827Z,11.50
2023-05-28T08:00:32.498Z,9.47
2023-05-28T08:02:59.204Z,6.77
2023-05-28T08:05:25.856Z,8.70
2023-05-28T08:07:52.430Z,8.57
2023-05-28T08:10:19.387Z,6.43
2023-05-28T08:12:46.526Z,6.97
2023-05-28T08:15:13.227Z,9.97
2023-05-28T08:17:39.857Z,7.03
2023-05-28T08:20:10.820Z,7.57
2023-05-28T08:22:37.679Z,8.30
2023-05-28T08:25:04.295Z,10.53
2023-05-28T08:27:32.348Z,8.33
2023-05-28T08:29:58.907Z,6.53
2023-05-28T08:32:25.794Z,6.50
2023-05-28T08:34:53.391Z,8.63
2023-05-28T08:37:21.518Z,10.65
2023-05-28T08:39:48.087Z,5.57
2023-05-28T08:42:14.747Z,7.68
2023-05-28T08:44:41.754Z,8.82
2023-05-28T08:47:08.769Z,10.20
2023-05-28T08:49:54.506Z,9.15
2023-05-28T08:52:22.290Z,8.38
2023-05-28T08:54:49.168Z,9.10
2023-05-28T08:57:16.745Z,6.53
2023-05-28T08:59:43.786Z,7.40
2023-05-28T09:02:12.703Z,6.10
2023-05-28T09:04:39.304Z,8.38
2023-05-28T09:07:06.973Z,6.50
2023-05-28T09:09:33.825Z,6.38
2023-05-28T09:12:05.227Z,7.03
2023-05-28T09:14:32.184Z,6.68
2023-05-28T09:16:59.032Z,8.40
2023-05-28T09:19:26.440Z,7.35
2023-05-28T09:21:59.106Z,7.78
2023-05-28T09:24:27.105Z,9.05
2023-05-28T09:26:57.105Z,7.22
2023-05-28T09:29:24.830Z,6.43
2023-05-28T09:31:58.417Z,6.22
2023-05-28T09:34:32.289Z,7.45
2023-05-28T09:37:02.623Z,7.47
2023-05-28T09:39:29.492Z,7.82
2023-05-28T09:42:01.592Z,6.47
2023-05-28T09:44:30.668Z,6.03
2023-05-28T09:46:57.267Z,6.32
2023-05-28T09:49:23.955Z,5.78
2023-05-28T09:51:53.089Z,5.15
2023-05-28T09:54:20.414Z,6.25
2023-05-28T09:56:48.630Z,6.43
2023-05-28T09:59:18.176Z,5.65
2023-05-28T10:02:11.192Z,5.95
2023-05-28T10:04:39.579Z,7.88
2023-05-28T10:07:07.087Z,9.75
2023-05-28T10:09:34.246Z,4.85
2023-05-28T10:12:09.755Z,6.45
2023-05-28T10:14:37.766Z,7.22
2023-05-28T10:17:04.354Z,8.32
2023-05-28T10:19:31.460Z,6.72
2023-05-28T10:21:58.481Z,6.47
2023-05-28T10:24:25.442Z,7.63
2023-05-28T10:26:53.115Z,7.70
2023-05-28T10:29:19.848Z,5.32
2023-05-28T10:31:46.735Z,10.35
2023-05-28T10:34:17.412Z,7.18
2023-05-28T10:36:51.631Z,6.00
2023-05-28T10:39:18.265Z,8.02
2023-05-28T10:41:44.939Z,8.90
2023-05-28T10:44:12.863Z,6.70
2023-05-28T10:46:40.350Z,8.25
2023-05-28T10:49:11.597Z,6.15
2023-05-28T10:52:04.263Z,9.23
2023-05-28T10:54:30.857Z,7.82
2023-05-28T10:57:07.403Z,9.73
2023-05-28T10:59:53.345Z,6.93
2023-05-28T11:02:24.363Z,6.75
2023-05-28T11:04:52.210Z,6.60
2023-05-28T11:07:19.420Z,8.63
2023-05-28T11:09:51.030Z,8.45
2023-05-28T11:12:18.004Z,9.43
2023-05-28T11:14:44.644Z,7.28
2023-05-28T11:17:12.895Z,6.72
2023-05-28T11:19:44.030Z,5.45
2023-05-28T11:22:10.916Z,8.40
2023-05-28T11:24:56.823Z,8.95
2023-05-28T11:27:26.425Z,7.47
2023-05-28T11:29:54.617Z,8.45
2023-05-28T11:32:24.270Z,8.43
2023-05-28T11:34:51.743Z,6.95
2023-05-28T11:37:23.363Z,7.72
2023-05-28T11:39:51.027Z,6.35
2023-05-28T11:42:21.670Z,6.47
2023-05-28T11:44:48.981Z,5.57
2023-05-28T11:47:16.350Z,6.45
2023-05-28T11:49:43.397Z,6.57
2023-05-28T11:52:17.382Z,8.70
2023-05-28T11:54:48.301Z,8.27
2023-05-28T11:57:44.851Z,6.93
2023-05-28T12:00:13.421Z,8.57
2023-05-28T12:02:50.413Z,10.88
2023-05-28T12:05:18.535Z,9.93
2023-05-28T12:07:46.878Z,8.98
2023-05-28T12:10:14.311Z,6.18
2023-05-28T12:12:42.659Z,6.63
2023-05-28T12:15:09.836Z,6.30
2023-05-28T12:17:40.600Z,6.20
2023-05-28T12:20:13.968Z,7.90
2023-05-28T12:22:40.795Z,7.38
2023-05-28T12:25:07.998Z,6.68
2023-05-28T12:27:34.945Z,6.78
2023-05-28T12:30:01.532Z,7.47
2023-05-28T12:32:28.189Z,8.25
2023-05-28T12:34:57.338Z,6.60
2023-05-28T12:37:24.683Z,9.32
2023-05-28T12:39:52.140Z,8.32
2023-05-28T12:42:19.003Z,7.57
2023-05-28T12:44:45.779Z,6.35
2023-05-28T12:47:12.922Z,6.40
2023-05-28T12:49:39.527Z,7.00
2023-05-28T12:52:06.285Z,8.57
2023-05-28T12:54:36.299Z,7.95
2023-05-28T12:57:03.920Z,6.57
2023-05-28T12:59:31.500Z,8.13
2023-05-28T13:01:58.323Z,7.03
2023-05-28T13:04:25.150Z,6.53
2023-05-28T13:06:52.499Z,7.32
2023-05-28T13:09:19.135Z,7.10
2023-05-28T13:11:46.188Z,6.38
2023-05-28T13:14:12.983Z,7.38
2023-05-28T13:16:39.577Z,9.60
2023-05-28T13:19:06.287Z,8.07
2023-05-28T13:21:32.974Z,5.47
2023-05-28T13:24:00.007Z,9.02
2023-05-28T13:26:28.052Z,6.05
2023-05-28T13:28:54.624Z,7.90
2023-05-28T13:31:21.392Z,6.57
2023-05-28T13:33:48.079Z,10.00
2023-05-28T13:36:14.668Z,8.10
2023-05-28T13:38:44.498Z,6.35
2023-05-28T13:41:12.039Z,7.45
2023-05-28T13:43:39.193Z,7.55
2023-05-28T13:46:06.028Z,7.82
2023-05-28T13:48:32.895Z,7.05
2023-05-28T13:50:59.609Z,7.03
2023-05-28T13:53:26.935Z,7.35
2023-05-28T13:55:53.507Z,6.32
2023-05-28T13:58:20.120Z,5.78
2023-05-28T14:00:46.973Z,9.23
2023-05-28T14:03:15.391Z,7.63
2023-05-28T14:05:44.124Z,10.32
2023-05-28T14:08:11.729Z,6.93
2023-05-28T14:10:38.343Z,7.97
2023-05-28T14:13:04.980Z,6.72
2023-05-28T14:15:31.658Z,7.68
2023-05-28T14:17:58.956Z,6.13
2023-05-28T14:20:25.884Z,6.28
2023-05-28T14:22:52.472Z,7.93
2023-05-28T14:25:19.166Z,7.28
2023-05-28T14:27:48.223Z,6.65
2023-05-28T14:30:20.817Z,5.75
2023-05-28T14:32:47.387Z,7.03
2023-05-28T14:35:14.085Z,8.13
2023-05-28T14:37:41.381Z,6.40
2023-05-28T14:40:08.274Z,5.38
2023-05-28T14:42:34.848Z,6.28
2023-05-28T14:45:01.451Z,6.70
2023-05-28T14:47:28.315Z,7.90
2023-05-28T14:49:55.108Z,5.75
2023-05-28T14:52:31.781Z,7.18
2023-05-28T14:54:59.272Z,7.53
2023-05-28T14:57:27.371Z,6.35
2023-05-28T14:59:54.516Z,6.07
2023-05-28T15:02:21.123Z,7.18
2023-05-28T15:04:47.732Z,5.70
2023-05-28T15:07:14.387Z,8.85
2023-05-28T15:09:41.149Z,6.05
2023-05-28T15:12:07.801Z,5.85
2023-05-28T15:14:34.718Z,6.32
2023-05-28T15:17:01.758Z,7.43
2023-05-28T15:19:29.722Z,6.13
2023-05-28T15:21:56.379Z,5.95
2023-05-28T15:24:23.010Z,7.63
2023-05-28T15:26:50.164Z,6.15
2023-05-28T15:29:17.485Z,6.20
2023-05-28T15:31:46.421Z,5.80
2023-05-28T15:34:13.252Z,7.65
2023-05-28T15:36:39.925Z,11.68
2023-05-28T15:39:06.982Z,10.98
2023-05-28T15:41:34.530Z,8.10
2023-05-28T15:44:01.240Z,8.82
2023-05-28T15:46:28.654Z,5.13
2023-05-28T15:48:55.321Z,9.05
2023-05-28T15:51:21.988Z,6.20
2023-05-28T15:53:49.050Z,5.95
2023-05-28T15:56:15.668Z,6.43
2023-05-28T15:58:42.459Z,9.70
2023-05-28T16:01:10.057Z,9.05
2023-05-28T16:03:39.577Z,5.97
2023-05-28T16:06:07.187Z,6.82
2023-05-28T16:08:33.781Z,8.05
2023-05-28T16:11:00.633Z,5.50
2023-05-28T16:13:28.935Z,8.43
2023-05-28T16:15:56.059Z,7.40
2023-05-28T16:18:24.142Z,6.38
2023-05-28T16:20:50.945Z,6.22
2023-05-28T16:23:19.230Z,7.82
2023-05-28T16:25:46.027Z,6.60
2023-05-28T16:28:13.088Z,7.22
2023-05-28T16:30:39.859Z,8.73
2023-05-28T16:33:06.675Z,7.57
2023-05-28T16:35:33.458Z,7.80
2023-05-28T16:38:00.243Z,9.07
2023-05-28T16:40:26.952Z,5.95
2023-05-28T16:42:53.648Z,5.45
2023-05-28T16:45:20.368Z,7.07
2023-05-28T16:47:47.091Z,8.15
2023-05-28T16:50:15.448Z,12.00
2023-05-28T16:52:42.075Z,7.13
2023-05-28T16:55:09.741Z,8.60
2023-05-28T16:57:36.809Z,7.38
2023-05-28T17:00:07.094Z,7.53
2023-05-28T17:02:36.821Z,9.10
2023-05-28T17:05:04.013Z,10.43
2023-05-28T17:07:30.652Z,9.13
2023-05-28T17:09:57.307Z,7.68
2023-05-28T17:12:23.853Z,9.73
2023-05-28T17:14:50.701Z,9.40
2023-05-28T17:17:17.283Z,11.73
2023-05-28T17:19:43.903Z,9.50
2023-05-28T17:22:10.640Z,8.02
2023-05-28T17:24:37.180Z,9.07
2023-05-28T17:27:03.944Z,7.50
2023-05-28T17:29:30.552Z,8.07
2023-05-28T17:31:57.240Z,9.68
2023-05-28T17:34:23.777Z,6.13
2023-05-28T17:36:50.563Z,7.80
2023-05-28T17:39:17.819Z,8.00
2023-05-28T17:41:44.409Z,8.63
2023-05-28T17:44:14.014Z,7.80
2023-05-28T17:46:42.121Z,9.15
2023-05-28T17:49:09.184Z,6.38
2023-05-28T17:51:36.827Z,5.75
2023-05-28T17:54:04.491Z,8.45
2023-05-28T17:56:33.877Z,6.50
2023-05-28T17:59:02.140Z,7.25
2023-05-28T18:01:28.854Z,8.13
2023-05-28T18:03:55.756Z,7.28
2023-05-28T18:06:22.416Z,6.40
2023-05-28T18:08:49.201Z,5.90
2023-05-28T18:11:16.321Z,7.75
2023-05-28T18:13:42.880Z,7.18
2023-05-28T18:16:09.572Z,6.03
2023-05-28T18:18:36.148Z,6.13
2023-05-28T18:21:02.695Z,6.85
2023-05-28T18:23:29.881Z,8.95
2023-05-28T18:25:56.507Z,7.07
2023-05-28T18:28:23.231Z,6.23
2023-05-28T18:30:49.919Z,9.20
2023-05-28T18:33:16.515Z,7.23
2023-05-28T18:35:43.229Z,7.47
2023-05-28T18:38:09.890Z,6.50
2023-05-28T18:40:36.492Z,7.63
2023-05-28T18:43:03.062Z,8.43
2023-05-28T18:45:29.699Z,7.70
2023-05-28T18:47:57.129Z,7.13
2023-05-28T18:50:24.099Z,9.83
2023-05-28T18:52:50.639Z,7.60
2023-05-28T18:55:17.392Z,7.30
2023-05-28T18:57:44.066Z,5.63
2023-05-28T19:00:11.181Z,8.97
2023-05-28T19:02:38.873Z,8.40
2023-05-28T19:05:06.091Z,7.20
2023-05-28T19:07:32.911Z,8.60
2023-05-28T19:10:02.132Z,7.47
2023-05-28T19:12:30.405Z,8.27
2023-05-28T19:14:59.859Z,7.20
2023-05-28T19:17:26.954Z,6.43
2023-05-28T19:19:53.704Z,7.10
2023-05-28T19:22:20.423Z,6.97
2023-05-28T19:24:47.095Z,5.00
2023-05-28T19:27:13.630Z,7.43
2023-05-28T19:29:41.186Z,7.50
2023-05-28T19:32:08.323Z,6.97
2023-05-28T19:34:34.901Z,9.10
2023-05-28T19:37:01.527Z,5.80
2023-05-28T19:39:28.106Z,6.67
2023-05-28T19:41:54.708Z,7.30
2023-05-28T19:44:21.309Z,4.13
2023-05-28T19:46:47.910Z,7.33
2023-05-28T19:49:16.406Z,5.80
2023-05-28T19:51:44.428Z,5.93
2023-05-28T19:54:10.955Z,6.00
2023-05-28T19:56:37.579Z,6.70
2023-05-28T19:59:04.296Z,3.57
2023-05-28T20:01:31.452Z,5.57
2023-05-28T20:03:58.176Z,3.53
2023-05-28T20:06:24.865Z,4.53
2023-05-28T20:08:51.518Z,5.50
2023-05-28T20:11:18.361Z,3.80
2023-05-28T20:13:44.899Z,5.63
2023-05-28T20:16:11.597Z,4.37
2023-05-28T20:18:38.276Z,5.83
2023-05-28T20:21:07.398Z,4.23
2023-05-28T20:23:35.833Z,7.33
2023-05-28T20:26:02.640Z,6.33
2023-05-28T20:28:29.379Z,6.07
2023-05-28T20:30:56.211Z,4.50
2023-05-28T20:33:22.944Z,6.83
2023-05-28T20:35:53.185Z,7.00
2023-05-28T20:38:19.883Z,6.87
2023-05-28T20:40:46.670Z,7.40
2023-05-28T20:43:13.704Z,6.63
2023-05-28T20:45:40.329Z,5.60
2023-05-28T20:48:07.589Z,7.23
2023-05-28T20:50:37.181Z,5.07
2023-05-28T20:53:04.368Z,6.13
2023-05-28T20:55:31.099Z,6.40
2023-05-28T20:57:58.263Z,3.77
2023-05-28T21:00:26.461Z,5.80
2023-05-28T21:02:56.967Z,5.20
2023-05-28T21:05:24.171Z,7.00
2023-05-28T21:07:51.076Z,6.40
2023-05-28T21:10:18.103Z,6.03
2023-05-28T21:12:44.775Z,6.23
2023-05-28T21:15:11.651Z,5.10
2023-05-28T21:17:38.340Z,6.60
2023-05-28T21:20:07.880Z,8.83
2023-05-28T21:22:34.893Z,5.57
2023-05-28T21:25:01.977Z,7.73
2023-05-28T21:27:28.568Z,6.90
2023-05-28T21:29:55.150Z,7.77
2023-05-28T21:32:21.719Z,7.50
2023-05-28T21:34:48.377Z,6.37
2023-05-28T21:37:14.926Z,5.97
2023-05-28T21:39:41.979Z,8.73
2023-05-28T21:42:08.660Z,8.97
2023-05-28T21:44:35.220Z,8.77
2023-05-28T21:47:02.274Z,11.20
2023-05-28T21:49:28.960Z,10.27
2023-05-28T21:51:59.026Z,8.03
2023-05-28T21:54:25.633Z,10.43
2023-05-28T21:56:52.228Z,8.03
2023-05-28T21:59:19.040Z,9.67
2023-05-28T22:01:45.800Z,10.77
2023-05-28T22:04:12.459Z,12.63
2023-05-28T22:06:39.279Z,10.30
2023-05-28T22:09:07.481Z,10.50
2023-05-28T22:11:33.985Z,7.73
2023-05-28T22:14:00.563Z,10.43
2023-05-28T22:16:27.194Z,9.40
2023-05-28T22:18:53.768Z,10.67
2023-05-28T22:21:20.577Z,11.43
2023-05-28T22:23:47.310Z,10.20
2023-05-28T22:26:14.449Z,11.27
2023-05-28T22:28:57.338Z,11.93
2023-05-28T22:31:25.503Z,9.03
2023-05-28T22:33:52.141Z,10.30
2023-05-28T22:36:18.770Z,11.53
2023-05-28T22:38:45.369Z,10.13
2023-05-28T22:41:12.612Z,9.27
2023-05-28T22:43:40.296Z,10.73
2023-05-28T22:46:08.451Z,14.43
2023-05-28T22:48:35.792Z,10.60
2023-05-28T22:51:02.438Z,9.40
2023-05-28T22:53:29.038Z,8.83
2023-05-28T22:55:56.228Z,12.90
2023-05-28T22:58:23.133Z,13.80
2023-05-28T23:00:50.373Z,10.50
2023-05-28T23:03:17.248Z,12.97
2023-05-28T23:05:43.971Z,11.70
2023-05-28T23:08:10.747Z,11.10
2023-05-28T23:10:37.347Z,14.63
2023-05-28T23:13:03.883Z,11.03
2023-05-28T23:15:31.740Z,16.63
2023-05-28T23:17:58.450Z,13.13
2023-05-28T23:20:25.085Z,10.83
2023-05-28T23:22:52.134Z,8.90
2023-05-28T23:25:19.121Z,13.50
2023-05-28T23:27:45.742Z,10.37
2023-05-28T23:30:12.389Z,11.57
2023-05-28T23:32:39.741Z,11.63
2023-05-28T23:35:06.948Z,9.30
2023-05-28T23:37:33.633Z,10.53
2023-05-28T23:40:00.231Z,15.93
2023-05-28T23:42:29.055Z,12.50
2023-05-28T23:44:57.212Z,10.93
2023-05-28T23:47:23.928Z,12.73
2023-05-28T23:49:50.701Z,11.33
2023-05-28T23:52:17.356Z,8.27
2023-05-28T23:54:43.888Z,12.77
2023-05-28T23:57:10.546Z,8.60
2023-05-28T23:59:37.041Z,10.33
